sensor_id;sensor_type;location;lat;lon;timestamp;P1;durP1;ratioP1;P2;durP2;ratioP2
37895;SDS011;23733;53.254;10.430;2023-03-23T00:01:15;5.27;;;2.20;;
37895;SDS011;23733;53.254;10.430;2023-03-23T00:03:45;7.33;;;2.73;;
37895;SDS011;23733;53.254;10.430;2023-03-23T00:06:13;5.73;;;2.70;;
37895;SDS011;23733;53.254;10.430;2023-03-23T00:08:43;7.67;;;2.83;;
37895;SDS011;23733;53.254;10.430;2023-03-23T00:11:14;6.87;;;2.90;;
37895;SDS011;23733;53.254;10.430;2023-03-23T00:13:42;6.10;;;2.90;;
37895;SDS011;23733;53.254;10.430;2023-03-23T00:16:09;4.77;;;2.83;;
37895;SDS011;23733;53.254;10.430;2023-03-23T00:18:46;7.00;;;3.00;;
37895;SDS011;23733;53.254;10.430;2023-03-23T00:21:13;5.93;;;2.90;;
37895;SDS011;23733;53.254;10.430;2023-03-23T00:23:39;5.83;;;3.20;;
37895;SDS011;23733;53.254;10.430;2023-03-23T00:26:10;6.77;;;2.80;;
37895;SDS011;23733;53.254;10.430;2023-03-23T00:28:36;7.83;;;3.20;;
37895;SDS011;23733;53.254;10.430;2023-03-23T00:31:05;5.50;;;2.93;;
37895;SDS011;23733;53.254;10.430;2023-03-23T00:33:34;7.37;;;3.00;;
37895;SDS011;23733;53.254;10.430;2023-03-23T00:36:03;9.30;;;2.57;;
37895;SDS011;23733;53.254;10.430;2023-03-23T00:38:30;6.63;;;2.80;;
37895;SDS011;23733;53.254;10.430;2023-03-23T00:40:57;5.40;;;3.17;;
37895;SDS011;23733;53.254;10.430;2023-03-23T00:43:29;6.60;;;3.57;;
37895;SDS011;23733;53.254;10.430;2023-03-23T00:45:56;7.03;;;3.60;;
37895;SDS011;23733;53.254;10.430;2023-03-23T00:48:26;7.00;;;3.10;;
37895;SDS011;23733;53.254;10.430;2023-03-23T00:50:53;8.57;;;3.37;;
37895;SDS011;23733;53.254;10.430;2023-03-23T00:53:28;7.60;;;3.40;;
37895;SDS011;23733;53.254;10.430;2023-03-23T00:55:54;4.60;;;2.90;;
37895;SDS011;23733;53.254;10.430;2023-03-23T00:58:24;7.40;;;3.20;;
37895;SDS011;23733;53.254;10.430;2023-03-23T01:00:50;8.00;;;3.43;;
37895;SDS011;23733;53.254;10.430;2023-03-23T01:03:17;5.10;;;3.13;;
37895;SDS011;23733;53.254;10.430;2023-03-23T01:05:43;7.00;;;3.33;;
37895;SDS011;23733;53.254;10.430;2023-03-23T01:08:12;5.43;;;3.37;;
37895;SDS011;23733;53.254;10.430;2023-03-23T01:10:41;6.43;;;3.40;;
37895;SDS011;23733;53.254;10.430;2023-03-23T01:13:08;7.47;;;3.73;;
37895;SDS011;23733;53.254;10.430;2023-03-23T01:15:34;8.20;;;3.67;;
37895;SDS011;23733;53.254;10.430;2023-03-23T01:18:01;8.57;;;4.63;;
37895;SDS011;23733;53.254;10.430;2023-03-23T01:20:27;6.53;;;3.17;;
37895;SDS011;23733;53.254;10.430;2023-03-23T01:22:57;7.17;;;3.53;;
37895;SDS011;23733;53.254;10.430;2023-03-23T01:25:29;6.23;;;3.33;;
37895;SDS011;23733;53.254;10.430;2023-03-23T01:27:56;6.53;;;3.50;;
37895;SDS011;23733;53.254;10.430;2023-03-23T01:30:23;7.93;;;3.23;;
37895;SDS011;23733;53.254;10.430;2023-03-23T01:32:49;6.63;;;3.40;;
37895;SDS011;23733;53.254;10.430;2023-03-23T01:35:16;8.73;;;3.73;;
37895;SDS011;23733;53.254;10.430;2023-03-23T01:37:42;10.53;;;3.87;;
37895;SDS011;23733;53.254;10.430;2023-03-23T01:40:09;6.83;;;3.77;;
37895;SDS011;23733;53.254;10.430;2023-03-23T01:42:37;6.57;;;3.67;;
37895;SDS011;23733;53.254;10.430;2023-03-23T01:47:45;7.77;;;3.70;;
37895;SDS011;23733;53.254;10.430;2023-03-23T01:50:12;6.53;;;3.87;;
37895;SDS011;23733;53.254;10.430;2023-03-23T01:52:38;9.83;;;3.87;;
37895;SDS011;23733;53.254;10.430;2023-03-23T01:55:05;6.07;;;3.87;;
37895;SDS011;23733;53.254;10.430;2023-03-23T01:57:31;7.43;;;3.70;;
37895;SDS011;23733;53.254;10.430;2023-03-23T01:59:58;11.10;;;4.70;;
37895;SDS011;23733;53.254;10.430;2023-03-23T02:02:36;6.73;;;3.70;;
37895;SDS011;23733;53.254;10.430;2023-03-23T02:05:06;9.20;;;3.57;;
37895;SDS011;23733;53.254;10.430;2023-03-23T02:07:34;6.87;;;3.43;;
37895;SDS011;23733;53.254;10.430;2023-03-23T02:10:00;7.17;;;3.60;;
37895;SDS011;23733;53.254;10.430;2023-03-23T02:12:29;6.70;;;3.73;;
37895;SDS011;23733;53.254;10.430;2023-03-23T02:14:56;6.53;;;4.03;;
37895;SDS011;23733;53.254;10.430;2023-03-23T02:17:43;7.87;;;3.67;;
37895;SDS011;23733;53.254;10.430;2023-03-23T02:20:27;6.77;;;3.60;;
37895;SDS011;23733;53.254;10.430;2023-03-23T02:23:04;5.03;;;3.47;;
37895;SDS011;23733;53.254;10.430;2023-03-23T02:25:43;6.30;;;3.80;;
37895;SDS011;23733;53.254;10.430;2023-03-23T02:28:37;7.63;;;3.90;;
37895;SDS011;23733;53.254;10.430;2023-03-23T02:34:00;6.00;;;3.77;;
37895;SDS011;23733;53.254;10.430;2023-03-23T02:39:09;8.00;;;3.83;;
37895;SDS011;23733;53.254;10.430;2023-03-23T02:41:39;7.67;;;4.03;;
37895;SDS011;23733;53.254;10.430;2023-03-23T02:44:07;7.03;;;4.17;;
37895;SDS011;23733;53.254;10.430;2023-03-23T02:46:34;6.37;;;4.17;;
37895;SDS011;23733;53.254;10.430;2023-03-23T02:49:02;9.70;;;4.07;;
37895;SDS011;23733;53.254;10.430;2023-03-23T02:51:29;6.10;;;4.20;;
37895;SDS011;23733;53.254;10.430;2023-03-23T02:53:56;10.37;;;4.00;;
37895;SDS011;23733;53.254;10.430;2023-03-23T02:56:24;9.20;;;4.53;;
37895;SDS011;23733;53.254;10.430;2023-03-23T02:59:02;8.37;;;4.53;;
37895;SDS011;23733;53.254;10.430;2023-03-23T03:03:57;10.07;;;4.77;;
37895;SDS011;23733;53.254;10.430;2023-03-23T03:06:36;6.37;;;4.53;;
37895;SDS011;23733;53.254;10.430;2023-03-23T03:11:36;7.97;;;4.70;;
37895;SDS011;23733;53.254;10.430;2023-03-23T03:14:04;8.50;;;4.60;;
37895;SDS011;23733;53.254;10.430;2023-03-23T03:16:37;7.40;;;4.57;;
37895;SDS011;23733;53.254;10.430;2023-03-23T03:19:21;9.37;;;4.70;;
37895;SDS011;23733;53.254;10.430;2023-03-23T03:21:50;7.60;;;4.57;;
37895;SDS011;23733;53.254;10.430;2023-03-23T03:24:20;5.90;;;4.60;;
37895;SDS011;23733;53.254;10.430;2023-03-23T03:26:50;5.77;;;4.53;;
37895;SDS011;23733;53.254;10.430;2023-03-23T03:29:18;6.27;;;4.60;;
37895;SDS011;23733;53.254;10.430;2023-03-23T03:31:46;8.20;;;4.50;;
37895;SDS011;23733;53.254;10.430;2023-03-23T03:34:13;7.90;;;4.60;;
37895;SDS011;23733;53.254;10.430;2023-03-23T03:36:44;6.70;;;4.40;;
37895;SDS011;23733;53.254;10.430;2023-03-23T03:39:11;7.30;;;4.50;;
37895;SDS011;23733;53.254;10.430;2023-03-23T03:41:40;7.57;;;4.30;;
37895;SDS011;23733;53.254;10.430;2023-03-23T03:44:09;7.67;;;4.73;;
37895;SDS011;23733;53.254;10.430;2023-03-23T03:46:36;9.37;;;5.00;;
37895;SDS011;23733;53.254;10.430;2023-03-23T03:49:07;7.30;;;4.63;;
37895;SDS011;23733;53.254;10.430;2023-03-23T03:51:34;6.33;;;4.53;;
37895;SDS011;23733;53.254;10.430;2023-03-23T03:54:01;5.60;;;4.13;;
37895;SDS011;23733;53.254;10.430;2023-03-23T03:56:27;7.37;;;5.17;;
37895;SDS011;23733;53.254;10.430;2023-03-23T03:58:54;6.60;;;4.40;;
37895;SDS011;23733;53.254;10.430;2023-03-23T04:01:20;8.73;;;5.03;;
37895;SDS011;23733;53.254;10.430;2023-03-23T04:03:50;7.60;;;5.17;;
37895;SDS011;23733;53.254;10.430;2023-03-23T04:06:17;7.50;;;4.90;;
37895;SDS011;23733;53.254;10.430;2023-03-23T04:08:44;10.67;;;5.23;;
37895;SDS011;23733;53.254;10.430;2023-03-23T04:11:12;7.40;;;5.07;;
37895;SDS011;23733;53.254;10.430;2023-03-23T04:13:39;6.90;;;4.37;;
37895;SDS011;23733;53.254;10.430;2023-03-23T04:16:05;7.87;;;5.60;;
37895;SDS011;23733;53.254;10.430;2023-03-23T04:18:32;7.73;;;5.50;;
37895;SDS011;23733;53.254;10.430;2023-03-23T04:20:59;6.80;;;4.67;;
37895;SDS011;23733;53.254;10.430;2023-03-23T04:23:27;8.27;;;5.63;;
37895;SDS011;23733;53.254;10.430;2023-03-23T04:25:58;8.00;;;4.93;;
37895;SDS011;23733;53.254;10.430;2023-03-23T04:28:25;6.90;;;5.10;;
37895;SDS011;23733;53.254;10.430;2023-03-23T04:30:53;5.50;;;4.87;;
37895;SDS011;23733;53.254;10.430;2023-03-23T04:33:20;7.53;;;4.83;;
37895;SDS011;23733;53.254;10.430;2023-03-23T04:35:47;8.60;;;4.87;;
37895;SDS011;23733;53.254;10.430;2023-03-23T04:38:17;7.73;;;5.07;;
37895;SDS011;23733;53.254;10.430;2023-03-23T04:40:46;6.23;;;4.57;;
37895;SDS011;23733;53.254;10.430;2023-03-23T04:43:13;8.20;;;4.70;;
37895;SDS011;23733;53.254;10.430;2023-03-23T04:45:40;6.40;;;4.67;;
37895;SDS011;23733;53.254;10.430;2023-03-23T04:48:10;7.30;;;4.77;;
37895;SDS011;23733;53.254;10.430;2023-03-23T04:50:40;6.67;;;4.97;;
37895;SDS011;23733;53.254;10.430;2023-03-23T04:53:06;7.93;;;4.57;;
37895;SDS011;23733;53.254;10.430;2023-03-23T04:55:36;7.20;;;4.60;;
37895;SDS011;23733;53.254;10.430;2023-03-23T04:58:03;6.37;;;4.07;;
37895;SDS011;23733;53.254;10.430;2023-03-23T05:00:29;5.77;;;4.57;;
37895;SDS011;23733;53.254;10.430;2023-03-23T05:02:56;6.67;;;4.40;;
37895;SDS011;23733;53.254;10.430;2023-03-23T05:05:33;5.23;;;3.77;;
37895;SDS011;23733;53.254;10.430;2023-03-23T05:08:00;4.90;;;3.87;;
37895;SDS011;23733;53.254;10.430;2023-03-23T05:10:26;7.90;;;4.23;;
37895;SDS011;23733;53.254;10.430;2023-03-23T05:13:07;6.97;;;4.63;;
37895;SDS011;23733;53.254;10.430;2023-03-23T05:15:37;9.83;;;4.37;;
37895;SDS011;23733;53.254;10.430;2023-03-23T05:18:03;7.50;;;4.20;;
37895;SDS011;23733;53.254;10.430;2023-03-23T05:20:30;5.80;;;3.60;;
37895;SDS011;23733;53.254;10.430;2023-03-23T05:22:57;8.03;;;4.13;;
37895;SDS011;23733;53.254;10.430;2023-03-23T05:25:24;5.50;;;3.97;;
37895;SDS011;23733;53.254;10.430;2023-03-23T05:27:51;7.40;;;4.23;;
37895;SDS011;23733;53.254;10.430;2023-03-23T05:30:18;6.83;;;3.60;;
37895;SDS011;23733;53.254;10.430;2023-03-23T05:32:45;6.53;;;3.87;;
37895;SDS011;23733;53.254;10.430;2023-03-23T05:35:16;5.83;;;3.77;;
37895;SDS011;23733;53.254;10.430;2023-03-23T05:37:45;5.63;;;3.63;;
37895;SDS011;23733;53.254;10.430;2023-03-23T05:40:12;8.33;;;3.87;;
37895;SDS011;23733;53.254;10.430;2023-03-23T05:42:41;7.03;;;3.80;;
37895;SDS011;23733;53.254;10.430;2023-03-23T05:45:41;3.83;;;3.17;;
37895;SDS011;23733;53.254;10.430;2023-03-23T05:48:08;5.97;;;3.80;;
37895;SDS011;23733;53.254;10.430;2023-03-23T05:50:37;6.03;;;3.00;;
37895;SDS011;23733;53.254;10.430;2023-03-23T05:53:11;5.57;;;3.43;;
37895;SDS011;23733;53.254;10.430;2023-03-23T05:55:37;6.63;;;3.40;;
37895;SDS011;23733;53.254;10.430;2023-03-23T05:58:03;4.47;;;3.03;;
37895;SDS011;23733;53.254;10.430;2023-03-23T06:00:30;5.53;;;3.20;;
37895;SDS011;23733;53.254;10.430;2023-03-23T06:02:58;5.40;;;3.20;;
37895;SDS011;23733;53.254;10.430;2023-03-23T06:05:24;4.13;;;2.73;;
37895;SDS011;23733;53.254;10.430;2023-03-23T06:07:51;3.50;;;2.93;;
37895;SDS011;23733;53.254;10.430;2023-03-23T06:10:21;4.50;;;3.17;;
37895;SDS011;23733;53.254;10.430;2023-03-23T06:12:49;4.50;;;2.80;;
37895;SDS011;23733;53.254;10.430;2023-03-23T06:15:16;6.33;;;2.90;;
37895;SDS011;23733;53.254;10.430;2023-03-23T06:17:42;4.70;;;2.83;;
37895;SDS011;23733;53.254;10.430;2023-03-23T06:20:09;5.07;;;2.80;;
37895;SDS011;23733;53.254;10.430;2023-03-23T06:22:39;4.40;;;2.87;;
37895;SDS011;23733;53.254;10.430;2023-03-23T06:25:09;4.53;;;2.53;;
37895;SDS011;23733;53.254;10.430;2023-03-23T06:27:41;4.70;;;2.60;;
37895;SDS011;23733;53.254;10.430;2023-03-23T06:30:14;5.93;;;2.60;;
37895;SDS011;23733;53.254;10.430;2023-03-23T06:32:41;5.30;;;2.07;;
37895;SDS011;23733;53.254;10.430;2023-03-23T06:35:13;5.47;;;2.63;;
37895;SDS011;23733;53.254;10.430;2023-03-23T06:37:39;4.00;;;2.40;;
37895;SDS011;23733;53.254;10.430;2023-03-23T06:40:06;4.13;;;2.60;;
37895;SDS011;23733;53.254;10.430;2023-03-23T06:42:32;5.57;;;2.23;;
37895;SDS011;23733;53.254;10.430;2023-03-23T06:45:01;4.43;;;2.40;;
37895;SDS011;23733;53.254;10.430;2023-03-23T06:47:31;3.33;;;2.10;;
37895;SDS011;23733;53.254;10.430;2023-03-23T06:49:58;3.03;;;1.90;;
37895;SDS011;23733;53.254;10.430;2023-03-23T06:52:33;5.37;;;2.37;;
37895;SDS011;23733;53.254;10.430;2023-03-23T06:55:02;2.37;;;2.00;;
37895;SDS011;23733;53.254;10.430;2023-03-23T06:57:28;5.33;;;2.30;;
37895;SDS011;23733;53.254;10.430;2023-03-23T06:59:54;5.60;;;2.33;;
37895;SDS011;23733;53.254;10.430;2023-03-23T07:02:20;3.77;;;2.47;;
37895;SDS011;23733;53.254;10.430;2023-03-23T07:04:46;4.20;;;2.13;;
37895;SDS011;23733;53.254;10.430;2023-03-23T07:07:19;3.23;;;2.17;;
37895;SDS011;23733;53.254;10.430;2023-03-23T07:09:46;2.60;;;2.20;;
37895;SDS011;23733;53.254;10.430;2023-03-23T07:12:13;3.17;;;1.80;;
37895;SDS011;23733;53.254;10.430;2023-03-23T07:14:39;3.00;;;2.23;;
37895;SDS011;23733;53.254;10.430;2023-03-23T07:17:06;2.90;;;2.20;;
37895;SDS011;23733;53.254;10.430;2023-03-23T07:19:33;3.10;;;1.97;;
37895;SDS011;23733;53.254;10.430;2023-03-23T07:21:59;3.97;;;1.83;;
37895;SDS011;23733;53.254;10.430;2023-03-23T07:24:25;5.70;;;2.23;;
37895;SDS011;23733;53.254;10.430;2023-03-23T07:26:52;3.77;;;2.10;;
37895;SDS011;23733;53.254;10.430;2023-03-23T07:29:18;4.73;;;2.20;;
37895;SDS011;23733;53.254;10.430;2023-03-23T07:31:45;3.10;;;1.90;;
37895;SDS011;23733;53.254;10.430;2023-03-23T07:34:11;2.77;;;1.90;;
37895;SDS011;23733;53.254;10.430;2023-03-23T07:36:37;2.90;;;1.90;;
37895;SDS011;23733;53.254;10.430;2023-03-23T07:39:04;2.97;;;1.97;;
37895;SDS011;23733;53.254;10.430;2023-03-23T07:41:31;3.90;;;1.97;;
37895;SDS011;23733;53.254;10.430;2023-03-23T07:43:57;4.93;;;1.97;;
37895;SDS011;23733;53.254;10.430;2023-03-23T07:46:23;3.27;;;2.10;;
37895;SDS011;23733;53.254;10.430;2023-03-23T07:48:50;2.10;;;1.80;;
37895;SDS011;23733;53.254;10.430;2023-03-23T07:51:17;3.30;;;2.00;;
37895;SDS011;23733;53.254;10.430;2023-03-23T07:53:44;3.53;;;1.90;;
37895;SDS011;23733;53.254;10.430;2023-03-23T07:56:18;5.03;;;2.33;;
37895;SDS011;23733;53.254;10.430;2023-03-23T07:58:45;3.17;;;1.90;;
37895;SDS011;23733;53.254;10.430;2023-03-23T08:01:12;4.33;;;2.03;;
37895;SDS011;23733;53.254;10.430;2023-03-23T08:03:39;2.63;;;1.70;;
37895;SDS011;23733;53.254;10.430;2023-03-23T08:06:05;3.43;;;1.90;;
37895;SDS011;23733;53.254;10.430;2023-03-23T08:08:33;5.37;;;1.87;;
37895;SDS011;23733;53.254;10.430;2023-03-23T08:10:59;2.33;;;1.60;;
37895;SDS011;23733;53.254;10.430;2023-03-23T08:13:26;4.70;;;2.37;;
37895;SDS011;23733;53.254;10.430;2023-03-23T08:15:55;2.70;;;2.10;;
37895;SDS011;23733;53.254;10.430;2023-03-23T08:18:22;3.63;;;2.00;;
37895;SDS011;23733;53.254;10.430;2023-03-23T08:20:48;2.67;;;2.07;;
37895;SDS011;23733;53.254;10.430;2023-03-23T08:23:15;3.93;;;1.80;;
37895;SDS011;23733;53.254;10.430;2023-03-23T08:25:43;4.77;;;2.23;;
37895;SDS011;23733;53.254;10.430;2023-03-23T08:28:10;4.30;;;1.97;;
37895;SDS011;23733;53.254;10.430;2023-03-23T08:30:37;5.97;;;2.13;;
37895;SDS011;23733;53.254;10.430;2023-03-23T08:33:05;5.17;;;2.13;;
37895;SDS011;23733;53.254;10.430;2023-03-23T08:35:32;3.47;;;2.10;;
37895;SDS011;23733;53.254;10.430;2023-03-23T08:37:58;4.80;;;2.10;;
37895;SDS011;23733;53.254;10.430;2023-03-23T08:40:25;3.63;;;2.10;;
37895;SDS011;23733;53.254;10.430;2023-03-23T08:42:52;3.17;;;2.10;;
37895;SDS011;23733;53.254;10.430;2023-03-23T08:45:20;3.17;;;1.90;;
37895;SDS011;23733;53.254;10.430;2023-03-23T08:47:46;3.63;;;2.07;;
37895;SDS011;23733;53.254;10.430;2023-03-23T08:50:20;6.70;;;1.90;;
37895;SDS011;23733;53.254;10.430;2023-03-23T08:52:48;2.97;;;1.90;;
37895;SDS011;23733;53.254;10.430;2023-03-23T08:55:16;2.90;;;1.97;;
37895;SDS011;23733;53.254;10.430;2023-03-23T08:57:43;4.80;;;2.00;;
37895;SDS011;23733;53.254;10.430;2023-03-23T09:00:11;2.37;;;1.90;;
37895;SDS011;23733;53.254;10.430;2023-03-23T09:02:54;3.37;;;2.20;;
37895;SDS011;23733;53.254;10.430;2023-03-23T09:05:24;3.33;;;1.87;;
37895;SDS011;23733;53.254;10.430;2023-03-23T09:07:55;5.27;;;2.10;;
37895;SDS011;23733;53.254;10.430;2023-03-23T09:13:36;4.97;;;2.20;;
37895;SDS011;23733;53.254;10.430;2023-03-23T09:16:04;4.00;;;1.97;;
37895;SDS011;23733;53.254;10.430;2023-03-23T09:18:33;4.87;;;2.33;;
37895;SDS011;23733;53.254;10.430;2023-03-23T09:21:01;3.97;;;2.13;;
37895;SDS011;23733;53.254;10.430;2023-03-23T09:23:34;5.13;;;2.30;;
37895;SDS011;23733;53.254;10.430;2023-03-23T09:26:01;3.87;;;2.30;;
37895;SDS011;23733;53.254;10.430;2023-03-23T09:28:28;4.00;;;1.70;;
37895;SDS011;23733;53.254;10.430;2023-03-23T09:30:56;5.80;;;1.83;;
37895;SDS011;23733;53.254;10.430;2023-03-23T09:33:25;3.40;;;1.97;;
37895;SDS011;23733;53.254;10.430;2023-03-23T09:35:52;3.50;;;1.70;;
37895;SDS011;23733;53.254;10.430;2023-03-23T09:38:18;3.53;;;1.53;;
37895;SDS011;23733;53.254;10.430;2023-03-23T09:40:54;6.13;;;1.73;;
37895;SDS011;23733;53.254;10.430;2023-03-23T09:46:01;3.70;;;1.77;;
37895;SDS011;23733;53.254;10.430;2023-03-23T09:48:48;5.50;;;1.60;;
37895;SDS011;23733;53.254;10.430;2023-03-23T09:51:19;4.70;;;2.10;;
37895;SDS011;23733;53.254;10.430;2023-03-23T09:53:51;6.57;;;2.17;;
37895;SDS011;23733;53.254;10.430;2023-03-23T09:56:25;6.33;;;2.07;;
37895;SDS011;23733;53.254;10.430;2023-03-23T09:58:54;6.70;;;2.20;;
37895;SDS011;23733;53.254;10.430;2023-03-23T10:01:23;8.27;;;2.20;;
37895;SDS011;23733;53.254;10.430;2023-03-23T10:03:52;10.00;;;2.10;;
37895;SDS011;23733;53.254;10.430;2023-03-23T10:06:21;6.63;;;1.90;;
37895;SDS011;23733;53.254;10.430;2023-03-23T10:08:51;10.30;;;2.63;;
37895;SDS011;23733;53.254;10.430;2023-03-23T10:16:29;5.03;;;1.63;;
37895;SDS011;23733;53.254;10.430;2023-03-23T10:19:32;10.23;;;2.13;;
37895;SDS011;23733;53.254;10.430;2023-03-23T10:21:50;4.70;;;1.70;;
37895;SDS011;23733;53.254;10.430;2023-03-23T10:24:19;7.10;;;2.17;;
37895;SDS011;23733;53.254;10.430;2023-03-23T10:26:48;9.57;;;2.13;;
37895;SDS011;23733;53.254;10.430;2023-03-23T10:31:45;6.23;;;1.80;;
37895;SDS011;23733;53.254;10.430;2023-03-23T10:34:15;9.80;;;2.40;;
37895;SDS011;23733;53.254;10.430;2023-03-23T10:36:51;8.30;;;2.37;;
37895;SDS011;23733;53.254;10.430;2023-03-23T10:39:21;9.07;;;2.37;;
37895;SDS011;23733;53.254;10.430;2023-03-23T10:41:49;7.70;;;2.03;;
37895;SDS011;23733;53.254;10.430;2023-03-23T10:44:16;11.20;;;2.50;;
37895;SDS011;23733;53.254;10.430;2023-03-23T10:49:15;16.00;;;2.80;;
37895;SDS011;23733;53.254;10.430;2023-03-23T10:51:43;10.27;;;2.20;;
37895;SDS011;23733;53.254;10.430;2023-03-23T10:54:11;14.53;;;2.30;;
37895;SDS011;23733;53.254;10.430;2023-03-23T10:56:39;9.27;;;2.53;;
37895;SDS011;23733;53.254;10.430;2023-03-23T10:59:17;9.60;;;2.77;;
37895;SDS011;23733;53.254;10.430;2023-03-23T11:01:47;8.93;;;2.63;;
37895;SDS011;23733;53.254;10.430;2023-03-23T11:04:15;6.67;;;2.30;;
37895;SDS011;23733;53.254;10.430;2023-03-23T11:06:45;12.27;;;2.07;;
37895;SDS011;23733;53.254;10.430;2023-03-23T11:09:13;6.67;;;1.87;;
37895;SDS011;23733;53.254;10.430;2023-03-23T11:11:41;9.87;;;2.27;;
37895;SDS011;23733;53.254;10.430;2023-03-23T11:14:15;8.90;;;2.33;;
37895;SDS011;23733;53.254;10.430;2023-03-23T11:16:44;11.77;;;2.23;;
37895;SDS011;23733;53.254;10.430;2023-03-23T11:19:12;7.43;;;1.70;;
37895;SDS011;23733;53.254;10.430;2023-03-23T11:21:42;6.20;;;2.10;;
37895;SDS011;23733;53.254;10.430;2023-03-23T11:24:14;10.50;;;2.33;;
37895;SDS011;23733;53.254;10.430;2023-03-23T11:26:40;7.07;;;2.13;;
37895;SDS011;23733;53.254;10.430;2023-03-23T11:31:45;9.53;;;2.27;;
37895;SDS011;23733;53.254;10.430;2023-03-23T11:34:21;10.37;;;2.40;;
37895;SDS011;23733;53.254;10.430;2023-03-23T11:36:48;7.43;;;2.20;;
37895;SDS011;23733;53.254;10.430;2023-03-23T11:39:23;5.83;;;1.90;;
37895;SDS011;23733;53.254;10.430;2023-03-23T11:41:53;7.07;;;1.73;;
37895;SDS011;23733;53.254;10.430;2023-03-23T11:44:20;8.77;;;2.40;;
37895;SDS011;23733;53.254;10.430;2023-03-23T11:49:46;12.17;;;2.90;;
37895;SDS011;23733;53.254;10.430;2023-03-23T11:52:16;16.40;;;2.27;;
37895;SDS011;23733;53.254;10.430;2023-03-23T11:54:49;6.93;;;1.80;;
37895;SDS011;23733;53.254;10.430;2023-03-23T11:57:16;3.90;;;1.60;;
37895;SDS011;23733;53.254;10.430;2023-03-23T11:59:43;5.90;;;1.67;;
37895;SDS011;23733;53.254;10.430;2023-03-23T12:02:20;7.60;;;1.70;;
37895;SDS011;23733;53.254;10.430;2023-03-23T12:05:39;9.80;;;2.00;;
37895;SDS011;23733;53.254;10.430;2023-03-23T12:07:55;7.17;;;1.90;;
37895;SDS011;23733;53.254;10.430;2023-03-23T12:10:30;5.60;;;2.07;;
37895;SDS011;23733;53.254;10.430;2023-03-23T12:15:52;6.97;;;2.03;;
37895;SDS011;23733;53.254;10.430;2023-03-23T12:25:52;6.13;;;1.87;;
37895;SDS011;23733;53.254;10.430;2023-03-23T12:33:41;9.87;;;2.23;;
37895;SDS011;23733;53.254;10.430;2023-03-23T12:36:19;7.50;;;2.20;;
37895;SDS011;23733;53.254;10.430;2023-03-23T12:44:34;7.27;;;2.20;;
37895;SDS011;23733;53.254;10.430;2023-03-23T12:50:09;10.07;;;3.07;;
37895;SDS011;23733;53.254;10.430;2023-03-23T12:52:46;8.27;;;2.60;;
37895;SDS011;23733;53.254;10.430;2023-03-23T12:55:23;9.77;;;3.33;;
37895;SDS011;23733;53.254;10.430;2023-03-23T12:58:09;11.50;;;2.70;;
37895;SDS011;23733;53.254;10.430;2023-03-23T13:06:08;9.43;;;2.60;;
37895;SDS011;23733;53.254;10.430;2023-03-23T13:08:47;6.50;;;2.37;;
37895;SDS011;23733;53.254;10.430;2023-03-23T13:11:35;9.27;;;2.63;;
37895;SDS011;23733;53.254;10.430;2023-03-23T13:14:11;7.33;;;2.50;;
37895;SDS011;23733;53.254;10.430;2023-03-23T13:22:34;7.57;;;2.63;;
37895;SDS011;23733;53.254;10.430;2023-03-23T13:24:44;7.03;;;2.13;;
37895;SDS011;23733;53.254;10.430;2023-03-23T13:27:11;6.93;;;2.33;;
37895;SDS011;23733;53.254;10.430;2023-03-23T13:29:43;7.47;;;2.23;;
37895;SDS011;23733;53.254;10.430;2023-03-23T13:32:11;4.00;;;2.20;;
37895;SDS011;23733;53.254;10.430;2023-03-23T13:34:39;5.93;;;2.47;;
37895;SDS011;23733;53.254;10.430;2023-03-23T13:37:10;3.87;;;2.00;;
37895;SDS011;23733;53.254;10.430;2023-03-23T13:39:51;3.77;;;1.40;;
37895;SDS011;23733;53.254;10.430;2023-03-23T13:42:28;4.77;;;1.70;;
37895;SDS011;23733;53.254;10.430;2023-03-23T13:45:07;4.60;;;1.30;;
37895;SDS011;23733;53.254;10.430;2023-03-23T13:47:39;5.60;;;1.60;;
37895;SDS011;23733;53.254;10.430;2023-03-23T13:55:16;3.30;;;1.30;;
37895;SDS011;23733;53.254;10.430;2023-03-23T13:57:55;3.33;;;1.53;;
37895;SDS011;23733;53.254;10.430;2023-03-23T14:06:33;3.00;;;1.30;;
37895;SDS011;23733;53.254;10.430;2023-03-23T14:11:45;5.43;;;1.10;;
37895;SDS011;23733;53.254;10.430;2023-03-23T14:14:14;2.83;;;1.07;;
37895;SDS011;23733;53.254;10.430;2023-03-23T14:16:44;1.80;;;1.10;;
37895;SDS011;23733;53.254;10.430;2023-03-23T14:19:24;1.73;;;1.10;;
37895;SDS011;23733;53.254;10.430;2023-03-23T14:21:54;4.53;;;1.13;;
37895;SDS011;23733;53.254;10.430;2023-03-23T14:24:22;4.20;;;1.03;;
37895;SDS011;23733;53.254;10.430;2023-03-23T14:26:52;3.50;;;1.50;;
37895;SDS011;23733;53.254;10.430;2023-03-23T14:29:20;3.50;;;1.20;;
37895;SDS011;23733;53.254;10.430;2023-03-23T14:31:56;3.17;;;1.17;;
37895;SDS011;23733;53.254;10.430;2023-03-23T14:34:24;2.40;;;1.40;;
37895;SDS011;23733;53.254;10.430;2023-03-23T14:36:51;2.07;;;1.00;;
37895;SDS011;23733;53.254;10.430;2023-03-23T14:39:28;3.90;;;1.20;;
37895;SDS011;23733;53.254;10.430;2023-03-23T14:42:00;2.40;;;1.13;;
37895;SDS011;23733;53.254;10.430;2023-03-23T14:44:31;4.20;;;1.40;;
37895;SDS011;23733;53.254;10.430;2023-03-23T14:46:58;3.10;;;1.00;;
37895;SDS011;23733;53.254;10.430;2023-03-23T14:49:31;3.77;;;1.00;;
37895;SDS011;23733;53.254;10.430;2023-03-23T14:52:01;5.17;;;1.30;;
37895;SDS011;23733;53.254;10.430;2023-03-23T14:54:28;4.23;;;1.20;;
37895;SDS011;23733;53.254;10.430;2023-03-23T14:56:54;2.80;;;1.10;;
37895;SDS011;23733;53.254;10.430;2023-03-23T14:59:21;5.87;;;1.10;;
37895;SDS011;23733;53.254;10.430;2023-03-23T15:01:48;3.27;;;1.53;;
37895;SDS011;23733;53.254;10.430;2023-03-23T15:04:17;2.47;;;1.30;;
37895;SDS011;23733;53.254;10.430;2023-03-23T15:06:46;2.47;;;1.10;;
37895;SDS011;23733;53.254;10.430;2023-03-23T15:09:16;5.17;;;1.70;;
37895;SDS011;23733;53.254;10.430;2023-03-23T15:11:49;4.00;;;1.40;;
37895;SDS011;23733;53.254;10.430;2023-03-23T15:14:17;2.97;;;1.20;;
37895;SDS011;23733;53.254;10.430;2023-03-23T15:16:49;3.87;;;1.23;;
37895;SDS011;23733;53.254;10.430;2023-03-23T15:19:24;4.37;;;1.50;;
37895;SDS011;23733;53.254;10.430;2023-03-23T15:22:04;4.07;;;1.40;;
37895;SDS011;23733;53.254;10.430;2023-03-23T15:24:36;4.10;;;1.10;;
37895;SDS011;23733;53.254;10.430;2023-03-23T15:27:04;3.70;;;1.20;;
37895;SDS011;23733;53.254;10.430;2023-03-23T15:29:45;5.10;;;1.17;;
37895;SDS011;23733;53.254;10.430;2023-03-23T15:32:11;2.60;;;1.23;;
37895;SDS011;23733;53.254;10.430;2023-03-23T15:34:40;4.77;;;1.13;;
37895;SDS011;23733;53.254;10.430;2023-03-23T15:39:46;3.57;;;1.40;;
37895;SDS011;23733;53.254;10.430;2023-03-23T15:42:21;3.43;;;1.47;;
37895;SDS011;23733;53.254;10.430;2023-03-23T15:44:54;5.67;;;1.57;;
37895;SDS011;23733;53.254;10.430;2023-03-23T15:47:21;4.90;;;1.70;;
37895;SDS011;23733;53.254;10.430;2023-03-23T15:50:01;4.03;;;1.53;;
37895;SDS011;23733;53.254;10.430;2023-03-23T15:52:28;5.20;;;1.60;;
37895;SDS011;23733;53.254;10.430;2023-03-23T15:54:54;3.77;;;1.40;;
37895;SDS011;23733;53.254;10.430;2023-03-23T15:57:23;5.13;;;1.40;;
37895;SDS011;23733;53.254;10.430;2023-03-23T15:59:52;6.17;;;1.70;;
37895;SDS011;23733;53.254;10.430;2023-03-23T16:02:20;7.13;;;1.67;;
37895;SDS011;23733;53.254;10.430;2023-03-23T16:04:47;4.93;;;1.50;;
37895;SDS011;23733;53.254;10.430;2023-03-23T16:07:14;4.50;;;1.23;;
37895;SDS011;23733;53.254;10.430;2023-03-23T16:09:40;3.63;;;1.50;;
37895;SDS011;23733;53.254;10.430;2023-03-23T16:12:10;7.17;;;1.50;;
37895;SDS011;23733;53.254;10.430;2023-03-23T16:14:40;5.80;;;1.47;;